createdAt,value
2018-07-30T00:02:03.889Z,71.89
2018-07-30T00:04:31.982Z,72.83
2018-07-30T00:07:00.073Z,72.16
2018-07-30T00:09:28.163Z,71.72
2018-07-30T00:11:56.256Z,71.99
2018-07-30T00:14:24.351Z,71.72
2018-07-30T00:16:52.456Z,72.37
2018-07-30T00:19:20.597Z,72.91
2018-07-30T00:21:48.873Z,72.35
2018-07-30T00:24:17.445Z,72.20
2018-07-30T00:26:45.554Z,73.05
2018-07-30T00:29:14.425Z,73.69
2018-07-30T00:31:42.508Z,73.01
2018-07-30T00:34:10.617Z,73.27
2018-07-30T00:36:38.724Z,73.67
2018-07-30T00:39:09.625Z,74.43
2018-07-30T00:41:38.989Z,74.53
2018-07-30T00:44:07.386Z,74.43
2018-07-30T00:46:35.679Z,74.44
2018-07-30T00:49:03.780Z,74.96
2018-07-30T00:51:31.868Z,75.31
2018-07-30T00:54:00.143Z,76.96
2018-07-30T00:56:28.263Z,77.41
2018-07-30T00:58:56.707Z,78.15
2018-07-30T01:01:24.837Z,78.99
2018-07-30T01:03:53.154Z,78.67
2018-07-30T01:06:21.239Z,78.77
2018-07-30T01:08:49.344Z,79.08
2018-07-30T01:11:17.447Z,78.80
2018-07-30T01:13:45.575Z,78.87
2018-07-30T01:16:13.676Z,79.82
2018-07-30T01:18:41.794Z,79.31
2018-07-30T01:24:03.264Z,79.40
2018-07-30T01:26:31.352Z,79.69
2018-07-30T01:29:00.189Z,79.65
2018-07-30T01:31:28.500Z,79.65
2018-07-30T01:33:56.595Z,80.15
2018-07-30T01:36:24.700Z,80.06
2018-07-30T01:38:52.807Z,79.85
2018-07-30T01:41:20.909Z,79.76
2018-07-30T01:43:49.033Z,79.21
2018-07-30T01:46:17.123Z,79.58
2018-07-30T01:48:45.229Z,80.14
2018-07-30T01:51:13.359Z,80.34
2018-07-30T01:53:41.447Z,80.74
2018-07-30T01:56:09.931Z,79.89
2018-07-30T01:58:38.034Z,79.57
2018-07-30T02:01:06.259Z,79.37
2018-07-30T02:03:34.361Z,79.51
2018-07-30T02:06:02.452Z,80.19
2018-07-30T02:08:30.534Z,80.24
2018-07-30T02:10:58.944Z,80.92
2018-07-30T02:13:27.116Z,81.77
2018-07-30T02:15:55.206Z,82.37
2018-07-30T02:18:23.317Z,82.18
2018-07-30T02:20:51.407Z,81.90
2018-07-30T02:23:19.547Z,81.11
2018-07-30T02:25:47.836Z,80.68
2018-07-30T02:28:22.941Z,81.17
2018-07-30T02:30:51.035Z,81.14
2018-07-30T02:33:19.145Z,81.52
2018-07-30T02:35:47.284Z,81.33
2018-07-30T02:38:15.368Z,81.22
2018-07-30T02:40:43.523Z,81.57
2018-07-30T02:43:12.267Z,81.27
2018-07-30T02:45:40.376Z,81.94
2018-07-30T02:48:08.566Z,82.72
2018-07-30T02:50:36.640Z,83.32
2018-07-30T02:53:05.316Z,83.23
2018-07-30T02:55:33.392Z,83.08
2018-07-30T02:58:01.519Z,82.94
2018-07-30T03:00:30.576Z,82.77
2018-07-30T03:02:58.691Z,82.95
2018-07-30T03:05:26.814Z,83.91
2018-07-30T03:07:54.927Z,83.97
2018-07-30T03:10:23.014Z,83.75
2018-07-30T03:12:51.113Z,83.53
2018-07-30T03:15:19.205Z,83.74
2018-07-30T03:17:47.315Z,83.14
2018-07-30T03:20:15.424Z,83.18
2018-07-30T03:22:43.518Z,83.26
2018-07-30T03:25:11.633Z,83.17
2018-07-30T03:27:39.715Z,83.92
2018-07-30T03:30:09.210Z,84.87
2018-07-30T03:32:37.347Z,84.78
2018-07-30T03:35:05.967Z,84.54
2018-07-30T03:37:34.044Z,84.08
2018-07-30T03:40:02.150Z,84.10
2018-07-30T03:42:30.237Z,84.49
2018-07-30T03:44:58.341Z,84.47
2018-07-30T03:47:27.082Z,85.51
2018-07-30T03:49:55.323Z,84.07
2018-07-30T03:52:23.421Z,84.10
2018-07-30T04:00:57.982Z,85.25
2018-07-30T04:03:26.183Z,85.22
2018-07-30T04:05:54.447Z,85.18
2018-07-30T04:08:22.561Z,84.76
2018-07-30T04:10:50.741Z,84.94
2018-07-30T04:13:18.903Z,84.90
2018-07-30T04:15:47.065Z,85.13
2018-07-30T04:18:15.297Z,84.81
2018-07-30T04:20:44.302Z,85.40
2018-07-30T04:23:12.464Z,84.54
2018-07-30T04:25:40.605Z,84.29
2018-07-30T04:28:08.745Z,82.45
2018-07-30T04:30:36.962Z,83.17
2018-07-30T04:33:05.046Z,82.55
2018-07-30T04:35:33.140Z,82.79
2018-07-30T04:38:01.231Z,82.16
2018-07-30T04:40:29.324Z,81.47
2018-07-30T22:13:07.109Z,60.22
2018-07-30T22:15:35.447Z,60.30
2018-07-30T22:18:03.543Z,60.56
2018-07-30T22:20:31.705Z,60.48
2018-07-30T22:22:59.735Z,59.84
2018-07-30T22:25:27.837Z,60.96
2018-07-30T22:27:55.919Z,60.14
2018-07-30T22:30:25.020Z,60.78
2018-07-30T22:32:53.120Z,60.99
2018-07-30T22:35:21.495Z,60.51
2018-07-30T22:37:50.296Z,61.90
2018-07-30T22:40:18.397Z,62.14
2018-07-30T22:42:46.509Z,62.70
2018-07-30T22:45:14.790Z,62.30
2018-07-30T22:47:42.904Z,62.47
